Time;durP1;ratioP1;P1;durP2;ratioP2;P2;SDS_P1;SDS_P2;PMS_P1;PMS_P2;Temp;Humidity;BMP_temperature;BMP_pressure;BME280_temperature;BME280_humidity;BME280_pressure;Samples;Min_cycle;Max_cycle;Signal;HPM_P1;HPM_P2
2023/02/07 00:01:49;;;;;;;;;;;;;;;19.64;28.71;102672.37;105849;1286;61365;-80
2023/02/07 00:04:15;;;;;;;;;;;;;;;19.64;28.77;102673.10;105858;1286;61269;-80
2023/02/07 00:06:40;;;;;;;;;;;;;;;19.63;28.73;102671.51;105852;1286;61179;-80
2023/02/07 00:09:07;;;;;;;;;;;;;;;19.64;28.69;102671.65;105898;1285;61241;-80
2023/02/07 00:11:32;;;;;;;;;;;;;;;19.64;28.58;102669.89;105740;1291;73527;-80
2023/02/07 00:13:58;;;;;;;;;;;;;;;19.64;28.69;102668.09;105916;1285;61275;-80
2023/02/07 00:16:26;;;;;;;;;;;;;;;19.63;28.59;102663.64;105721;1286;61265;-80
2023/02/07 00:18:52;;;;;;;;;;;;;;;19.63;28.65;102664.71;105940;1286;61590;-80
2023/02/07 00:21:18;;;;;;;;;;;;;;;19.64;28.62;102663.45;105961;1286;61788;-80
2023/02/07 00:23:44;;;;;;;;;;;;;;;19.63;28.82;102660.79;105935;1286;61362;-80
2023/02/07 00:26:09;;;;;;;;;;;;;;;19.64;28.76;102666.31;105867;1286;61230;-80
2023/02/07 00:28:35;;;;;;;;;;;;;;;19.64;28.60;102666.13;105877;1286;61398;-80
2023/02/07 00:31:11;;;;;;;;;;;;;;;19.64;28.69;102661.67;106014;1286;61283;-80
2023/02/07 00:33:36;;;;;;;;;;;;;;;19.63;28.52;102662.76;105917;1286;72309;-80
2023/02/07 00:36:03;;;;;;;;;;;;;;;19.64;28.64;102660.96;106003;1288;61282;-80
2023/02/07 00:38:28;;;;;;;;;;;;;;;19.64;28.66;102659.52;105867;1286;61269;-80
2023/02/07 00:40:54;;;;;;;;;;;;;;;19.64;28.68;102655.78;105876;1286;61310;-80
2023/02/07 00:43:19;;;;;;;;;;;;;;;19.63;28.53;102656.88;105932;1286;61227;-80
2023/02/07 00:45:46;;;;;;;;;;;;;;;19.63;28.46;102662.04;105970;1288;61304;-80
2023/02/07 00:48:11;;;;;;;;;;;;;;;19.63;28.58;102657.95;105887;1286;74404;-80
2023/02/07 00:50:37;;;;;;;;;;;;;;;19.63;28.58;102659.03;105990;1286;61286;-80
2023/02/07 00:53:03;;;;;;;;;;;;;;;19.63;28.61;102659.02;105879;1286;61268;-80
2023/02/07 00:55:28;;;;;;;;;;;;;;;19.63;28.52;102659.54;105865;1291;61228;-80
2023/02/07 00:57:57;;;;;;;;;;;;;;;19.63;28.56;102647.60;105905;1286;61393;-80
2023/02/07 01:00:22;;;;;;;;;;;;;;;19.63;28.53;102646.32;105694;1286;73200;-80
2023/02/07 01:02:48;;;;;;;;;;;;;;;19.63;28.48;102645.27;105938;1286;61326;-80
2023/02/07 01:05:13;;;;;;;;;;;;;;;19.63;28.57;102640.79;105707;1286;61391;-80
2023/02/07 01:07:39;;;;;;;;;;;;;;;19.63;28.51;102637.06;105849;1285;61186;-80
2023/02/07 01:10:05;;;;;;;;;;;;;;;19.63;28.57;102640.46;105841;1286;61255;-80
2023/02/07 01:12:31;;;;;;;;;;;;;;;19.63;28.62;102639.74;105925;1286;61241;-80
2023/02/07 01:14:57;;;;;;;;;;;;;;;19.63;28.63;102639.38;105876;1286;61129;-80
2023/02/07 01:17:23;;;;;;;;;;;;;;;19.63;28.58;102639.54;105862;1286;61235;-80
2023/02/07 01:19:49;;;;;;;;;;;;;;;19.64;28.50;102638.98;105849;1286;61449;-81
2023/02/07 01:22:14;;;;;;;;;;;;;;;19.64;28.48;102636.66;105854;1286;61295;-81
2023/02/07 01:24:40;;;;;;;;;;;;;;;19.64;28.48;102630.24;105843;1286;60166;-81
2023/02/07 01:27:06;;;;;;;;;;;;;;;19.63;28.37;102631.52;105888;1286;61403;-81
2023/02/07 01:29:31;;;;;;;;;;;;;;;19.63;28.47;102629.21;105914;1286;61323;-80
2023/02/07 01:31:57;;;;;;;;;;;;;;;19.63;28.45;102634.58;105843;1285;72339;-80
2023/02/07 01:34:22;;;;;;;;;;;;;;;19.62;28.40;102634.56;105870;1286;61297;-80
2023/02/07 01:36:48;;;;;;;;;;;;;;;19.63;28.59;102630.83;105871;1285;61476;-80
2023/02/07 01:39:13;;;;;;;;;;;;;;;19.62;28.47;102634.20;105880;1286;61275;-80
2023/02/07 01:41:39;;;;;;;;;;;;;;;19.63;28.50;102633.84;105912;1286;61323;-80
2023/02/07 01:44:27;;;;;;;;;;;;;;;19.62;28.38;102632.77;105921;1285;73040;-80
2023/02/07 01:46:53;;;;;;;;;;;;;;;19.63;28.37;102635.09;105961;1284;74380;-80
2023/02/07 01:49:29;;;;;;;;;;;;;;;19.63;28.39;102635.61;105859;1286;61374;-80
2023/02/07 01:51:59;;;;;;;;;;;;;;;19.63;28.26;102635.45;105913;1286;61234;-80
2023/02/07 01:54:24;;;;;;;;;;;;;;;19.62;28.32;102633.85;105933;1286;72476;-80
2023/02/07 01:56:54;;;;;;;;;;;;;;;19.62;28.34;102634.22;105931;1285;61283;-80
2023/02/07 01:59:19;;;;;;;;;;;;;;;19.63;28.33;102630.27;105871;1286;61149;-80
2023/02/07 02:01:45;;;;;;;;;;;;;;;19.63;28.43;102631.88;105875;1286;61398;-80
2023/02/07 02:04:10;;;;;;;;;;;;;;;19.63;28.48;102634.02;105874;1285;61342;-80
2023/02/07 02:06:36;;;;;;;;;;;;;;;19.63;28.45;102629.92;105880;1286;61364;-80
2023/02/07 02:09:06;;;;;;;;;;;;;;;19.62;28.38;102633.13;105950;1288;63299;-80
2023/02/07 02:11:44;;;;;;;;;;;;;;;19.63;28.33;102630.80;105874;1286;61183;-80
2023/02/07 02:14:22;;;;;;;;;;;;;;;19.63;28.47;102635.80;105926;1284;61266;-80
2023/02/07 02:16:51;;;;;;;;;;;;;;;19.63;28.26;102644.01;105924;1284;72314;-80
2023/02/07 02:19:23;;;;;;;;;;;;;;;19.63;28.27;102647.41;105833;1286;74409;-79
2023/02/07 02:21:58;;;;;;;;;;;;;;;19.63;28.35;102649.36;105934;1286;61359;-81
2023/02/07 02:24:41;;;;;;;;;;;;;;;19.63;28.36;102652.05;105925;1286;61218;-80
2023/02/07 02:27:26;;;;;;;;;;;;;;;19.63;28.35;102650.46;105865;1284;72536;-80
2023/02/07 02:30:10;;;;;;;;;;;;;;;19.63;28.35;102650.98;105954;1285;74650;-80
2023/02/07 02:32:51;;;;;;;;;;;;;;;19.63;28.30;102653.50;105929;1285;61340;-80
2023/02/07 02:35:20;;;;;;;;;;;;;;;19.63;28.27;102659.05;105954;1286;61212;-80
2023/02/07 02:37:54;;;;;;;;;;;;;;;19.62;28.27;102659.23;105915;1285;72420;-80
2023/02/07 02:40:22;;;;;;;;;;;;;;;19.63;28.27;102661.17;105838;1286;74268;-80
2023/02/07 02:42:59;;;;;;;;;;;;;;;19.62;28.22;102661.19;105951;1286;61162;-80
2023/02/07 02:45:29;;;;;;;;;;;;;;;19.63;28.15;102664.23;105938;1286;61179;-80
2023/02/07 02:47:55;;;;;;;;;;;;;;;19.62;28.20;102664.75;105859;1284;73830;-80
2023/02/07 02:50:22;;;;;;;;;;;;;;;19.62;28.18;102666.91;105868;1286;61260;-80
2023/02/07 02:52:47;;;;;;;;;;;;;;;19.62;28.17;102667.99;105939;1285;61311;-80
2023/02/07 02:55:13;;;;;;;;;;;;;;;19.61;28.30;102670.52;105910;1285;61482;-80
2023/02/07 02:58:02;;;;;;;;;;;;;;;19.61;28.20;102670.35;105891;1285;61228;-80
2023/02/07 03:00:31;;;;;;;;;;;;;;;19.61;28.03;102675.88;105286;1291;75512;-80
2023/02/07 03:03:07;;;;;;;;;;;;;;;19.61;28.02;102676.23;105282;1291;61435;-80
2023/02/07 03:05:36;;;;;;;;;;;;;;;19.61;28.06;102684.44;105271;1291;59973;-80
2023/02/07 03:08:11;;;;;;;;;;;;;;;19.61;28.13;102685.18;105272;1291;72524;-80
2023/02/07 03:10:45;;;;;;;;;;;;;;;19.60;28.15;102691.80;105252;1291;75410;-80
2023/02/07 03:13:20;;;;;;;;;;;;;;;19.60;28.04;102695.00;105242;1291;61172;-80
2023/02/07 03:16:09;;;;;;;;;;;;;;;19.60;28.20;102694.13;105274;1291;61315;-80
2023/02/07 03:18:53;;;;;;;;;;;;;;;19.60;28.17;102694.67;104721;1299;73449;-80
2023/02/07 03:21:22;;;;;;;;;;;;;;;19.60;28.08;102693.96;104742;1299;74423;-80
2023/02/07 03:23:48;;;;;;;;;;;;;;;19.59;27.96;102691.29;104798;1299;61191;-80
2023/02/07 03:26:14;;;;;;;;;;;;;;;19.60;28.08;102693.40;104775;1299;61313;-80
2023/02/07 03:28:40;;;;;;;;;;;;;;;19.59;28.03;102693.23;104738;1299;61342;-80
2023/02/07 03:31:05;;;;;;;;;;;;;;;19.59;28.03;102690.40;104675;1300;61552;-80
2023/02/07 03:33:31;;;;;;;;;;;;;;;19.59;28.08;102695.40;104771;1301;59985;-80
2023/02/07 03:35:59;;;;;;;;;;;;;;;19.59;28.12;102692.73;104806;1299;61368;-80
2023/02/07 03:38:25;;;;;;;;;;;;;;;19.59;28.06;102698.64;105092;1291;60392;-80
2023/02/07 03:40:55;;;;;;;;;;;;;;;19.58;28.01;102695.96;105175;1291;61343;-80
2023/02/07 03:43:22;;;;;;;;;;;;;;;19.58;28.07;102694.71;105126;1291;74487;-80
2023/02/07 03:45:47;;;;;;;;;;;;;;;19.58;28.12;102693.84;105189;1291;59330;-80
2023/02/07 03:48:13;;;;;;;;;;;;;;;19.58;28.00;102693.66;105207;1291;60138;-80
2023/02/07 03:50:38;;;;;;;;;;;;;;;19.58;28.10;102689.92;105251;1291;61827;-80
2023/02/07 03:53:04;;;;;;;;;;;;;;;19.57;28.08;102685.82;105240;1291;61284;-80
2023/02/07 03:55:31;;;;;;;;;;;;;;;19.58;28.00;102685.45;105352;1285;61343;-80
2023/02/07 03:57:57;;;;;;;;;;;;;;;19.57;27.94;102680.83;105884;1286;61270;-80
2023/02/07 04:00:22;;;;;;;;;;;;;;;19.57;28.01;102682.61;105893;1285;61292;-80
2023/02/07 04:02:50;;;;;;;;;;;;;;;19.57;28.08;102681.90;105903;1286;73434;-80
2023/02/07 04:05:16;;;;;;;;;;;;;;;19.56;27.93;102684.61;105863;1286;74443;-80
2023/02/07 04:07:41;;;;;;;;;;;;;;;19.57;27.85;102686.54;105839;1285;61288;-80
2023/02/07 04:10:08;;;;;;;;;;;;;;;19.57;28.04;102688.33;105864;1286;61301;-80
2023/02/07 04:12:35;;;;;;;;;;;;;;;19.57;27.88;102687.45;105880;1286;61330;-80
2023/02/07 04:15:01;;;;;;;;;;;;;;;19.57;27.99;102688.52;105914;1286;61218;-80
2023/02/07 04:17:27;;;;;;;;;;;;;;;19.56;27.87;102692.83;105953;1285;61267;-80
2023/02/07 04:19:52;;;;;;;;;;;;;;;19.55;27.89;102694.27;105864;1286;61362;-80
2023/02/07 04:22:18;;;;;;;;;;;;;;;19.56;28.03;102693.73;105887;1286;61297;-80
2023/02/07 04:24:43;;;;;;;;;;;;;;;19.56;27.89;102696.04;105716;1284;72974;-80
2023/02/07 04:27:09;;;;;;;;;;;;;;;19.55;27.75;102692.70;105946;1284;61409;-80
2023/02/07 04:29:34;;;;;;;;;;;;;;;19.55;27.89;102691.80;105899;1286;61285;-80
2023/02/07 04:32:01;;;;;;;;;;;;;;;19.55;27.88;102690.19;105858;1284;61359;-80
2023/02/07 04:34:27;;;;;;;;;;;;;;;19.55;27.90;102693.22;105861;1286;61618;-80
2023/02/07 04:36:54;;;;;;;;;;;;;;;19.56;27.91;102694.64;105949;1285;61388;-80
2023/02/07 04:39:20;;;;;;;;;;;;;;;19.55;27.85;102697.35;105883;1285;61306;-80
2023/02/07 04:41:45;;;;;;;;;;;;;;;19.55;27.79;102697.52;105843;1284;61294;-80
2023/02/07 04:44:11;;;;;;;;;;;;;;;19.55;27.87;102702.17;105882;1286;61245;-80
2023/02/07 04:46:37;;;;;;;;;;;;;;;19.55;27.82;102704.68;105832;1285;73387;-80
2023/02/07 04:49:03;;;;;;;;;;;;;;;19.54;27.91;102703.45;105926;1285;61236;-80
2023/02/07 04:51:29;;;;;;;;;;;;;;;19.54;27.81;102701.85;105840;1285;61320;-80
2023/02/07 04:53:55;;;;;;;;;;;;;;;19.54;27.74;102704.70;105723;1285;61229;-80
2023/02/07 04:56:21;;;;;;;;;;;;;;;19.54;27.80;102708.63;105877;1286;61136;-80
2023/02/07 04:58:46;;;;;;;;;;;;;;;19.54;27.80;102713.45;105953;1286;61289;-80
2023/02/07 05:01:12;;;;;;;;;;;;;;;19.54;27.88;102714.71;105884;1284;61394;-80
2023/02/07 05:03:38;;;;;;;;;;;;;;;19.53;27.83;102716.86;105943;1285;59924;-80
2023/02/07 05:06:04;;;;;;;;;;;;;;;19.53;27.72;102717.95;105880;1286;61247;-81
2023/02/07 05:08:30;;;;;;;;;;;;;;;19.53;27.66;102717.95;105904;1286;61668;-81
2023/02/07 05:10:55;;;;;;;;;;;;;;;19.53;27.77;102721.89;105854;1284;61392;-81
2023/02/07 05:13:21;;;;;;;;;;;;;;;19.51;27.73;102729.08;105937;1285;61259;-80
2023/02/07 05:15:47;;;;;;;;;;;;;;;19.50;27.77;102726.06;105884;1286;61350;-81
2023/02/07 05:18:13;;;;;;;;;;;;;;;19.49;27.83;102733.11;105736;1286;61362;-81
2023/02/07 05:21:01;;;;;;;;;;;;;;;19.47;27.77;102730.12;105884;1289;61394;-81
2023/02/07 05:23:27;;;;;;;;;;;;;;;19.45;27.66;102734.98;105393;1291;74388;-81
2023/02/07 05:25:52;;;;;;;;;;;;;;;19.45;27.65;102739.31;105121;1291;61299;-80
2023/02/07 05:28:18;;;;;;;;;;;;;;;19.44;27.54;102738.43;105257;1291;61250;-81
2023/02/07 05:30:43;;;;;;;;;;;;;;;19.42;27.62;102737.77;105165;1291;61370;-81
2023/02/07 05:33:09;;;;;;;;;;;;;;;19.41;27.44;102739.08;105344;1291;61294;-82
2023/02/07 05:35:35;;;;;;;;;;;;;;;19.38;27.34;102739.34;105211;1291;75950;-81
2023/02/07 05:38:01;;;;;;;;;;;;;;;19.35;27.33;102738.02;105209;1291;61407;-81
2023/02/07 05:40:27;;;;;;;;;;;;;;;19.31;27.13;102738.33;105160;1291;60216;-81
2023/02/07 05:42:53;;;;;;;;;;;;;;;19.25;27.19;102743.17;105320;1291;61301;-81
2023/02/07 05:45:20;;;;;;;;;;;;;;;19.18;27.04;102748.04;105294;1291;60142;-81
2023/02/07 05:47:45;;;;;;;;;;;;;;;19.11;26.90;102749.67;105405;1291;59775;-80
2023/02/07 05:50:11;;;;;;;;;;;;;;;19.04;26.78;102747.76;105411;1291;60668;-81
2023/02/07 05:52:36;;;;;;;;;;;;;;;18.98;26.82;102746.36;105469;1290;60816;-81
2023/02/07 05:55:02;;;;;;;;;;;;;;;18.92;26.86;102747.25;105421;1291;72519;-81
2023/02/07 05:57:28;;;;;;;;;;;;;;;18.86;26.85;102743.67;105851;1291;59233;-82
2023/02/07 05:59:55;;;;;;;;;;;;;;;18.80;26.84;102740.46;105674;1285;59691;-81
2023/02/07 06:02:20;;;;;;;;;;;;;;;18.76;26.88;102743.27;106006;1286;61539;-81
2023/02/07 06:04:46;;;;;;;;;;;;;;;18.71;26.92;102745.53;106142;1285;59365;-81
2023/02/07 06:07:11;;;;;;;;;;;;;;;18.67;26.89;102745.13;105947;1284;61272;-81
2023/02/07 06:09:37;;;;;;;;;;;;;;;18.64;26.90;102743.42;106128;1286;61125;-81
2023/02/07 06:12:03;;;;;;;;;;;;;;;18.61;26.74;102742.29;106176;1285;60184;-80
2023/02/07 06:14:28;;;;;;;;;;;;;;;18.58;26.93;102738.60;106175;1285;61240;-80
2023/02/07 06:16:54;;;;;;;;;;;;;;;18.59;26.82;102741.10;106002;1286;60018;-80
2023/02/07 06:19:20;;;;;;;;;;;;;;;18.61;26.84;102740.31;105996;1286;60217;-81
2023/02/07 06:21:47;;;;;;;;;;;;;;;18.65;26.80;102740.19;106022;1286;61430;-81
2023/02/07 06:24:13;;;;;;;;;;;;;;;18.69;26.58;102739.71;106140;1285;61350;-81
2023/02/07 06:26:38;;;;;;;;;;;;;;;18.73;26.44;102737.80;106078;1284;61221;-81
2023/02/07 06:29:04;;;;;;;;;;;;;;;18.79;26.49;102742.08;106024;1285;60062;-81
2023/02/07 06:31:29;;;;;;;;;;;;;;;18.84;26.50;102740.67;106162;1284;61291;-81
2023/02/07 06:33:55;;;;;;;;;;;;;;;18.89;26.31;102740.91;106110;1284;61295;-81
2023/02/07 06:36:20;;;;;;;;;;;;;;;18.94;26.49;102739.52;106053;1285;59478;-79
2023/02/07 06:38:47;;;;;;;;;;;;;;;18.99;26.39;102739.89;106022;1286;61380;-80
2023/02/07 06:41:13;;;;;;;;;;;;;;;19.03;26.38;102736.73;106004;1285;61183;-79
2023/02/07 06:43:39;;;;;;;;;;;;;;;19.08;26.29;102737.11;106148;1285;59949;-80
2023/02/07 06:46:05;;;;;;;;;;;;;;;19.12;26.28;102736.25;106041;1286;61284;-79
2023/02/07 06:48:30;;;;;;;;;;;;;;;19.16;26.29;102731.52;106046;1285;59744;-80
2023/02/07 06:50:56;;;;;;;;;;;;;;;19.18;26.21;102729.98;106009;1285;73750;-81
2023/02/07 06:53:21;;;;;;;;;;;;;;;19.21;26.13;102725.06;106076;1285;59530;-82
2023/02/07 06:55:46;;;;;;;;;;;;;;;19.23;26.12;102731.63;106057;1286;60476;-82
2023/02/07 06:58:13;;;;;;;;;;;;;;;19.19;26.16;102731.58;106075;1285;61266;-81
2023/02/07 07:00:38;;;;;;;;;;;;;;;19.09;26.11;102734.23;106007;1285;59365;-81
2023/02/07 07:03:04;;;;;;;;;;;;;;;18.98;26.08;102736.00;105646;1285;649188;-81
2023/02/07 07:05:30;;;;;;;;;;;;;;;18.89;26.10;102738.40;106067;1286;73257;-80
2023/02/07 07:07:56;;;;;;;;;;;;;;;18.86;26.07;102735.45;106126;1285;60538;-80
2023/02/07 07:10:22;;;;;;;;;;;;;;;18.87;26.02;102732.58;106050;1286;61495;-80
2023/02/07 07:12:47;;;;;;;;;;;;;;;18.90;26.20;102739.10;106145;1286;60102;-80
2023/02/07 07:15:14;;;;;;;;;;;;;;;18.95;26.02;102739.84;106269;1285;61090;-80
2023/02/07 07:17:39;;;;;;;;;;;;;;;18.99;25.98;102735.08;106098;1286;75367;-80
2023/02/07 07:20:06;;;;;;;;;;;;;;;19.04;26.03;102739.55;106102;1285;61454;-80
2023/02/07 07:22:32;;;;;;;;;;;;;;;19.08;25.98;102738.71;106088;1286;59791;-80
2023/02/07 07:24:57;;;;;;;;;;;;;;;19.12;25.97;102737.16;106048;1286;60133;-80
2023/02/07 07:27:23;;;;;;;;;;;;;;;19.16;25.86;102733.12;106010;1286;61130;-80
2023/02/07 07:29:49;;;;;;;;;;;;;;;19.20;25.86;102735.11;106070;1285;61158;-80
2023/02/07 07:32:15;;;;;;;;;;;;;;;19.24;25.91;102743.38;106276;1285;60382;-80
2023/02/07 07:34:41;;;;;;;;;;;;;;;19.27;26.03;102744.34;106122;1286;60376;-80
2023/02/07 07:37:06;;;;;;;;;;;;;;;19.30;26.00;102740.12;106155;1285;59885;-80
2023/02/07 07:39:33;;;;;;;;;;;;;;;19.33;25.96;102742.73;105986;1286;60065;-80
2023/02/07 07:41:59;;;;;;;;;;;;;;;19.35;26.05;102740.16;106176;1284;61161;-80
2023/02/07 07:44:25;;;;;;;;;;;;;;;19.38;26.19;102742.73;106001;1284;61326;-80
2023/02/07 07:46:52;;;;;;;;;;;;;;;19.40;26.07;102740.52;106144;1285;61243;-81
2023/02/07 07:49:17;;;;;;;;;;;;;;;19.42;26.03;102741.17;105928;1284;60231;-80
2023/02/07 07:51:43;;;;;;;;;;;;;;;19.44;26.11;102742.35;105883;1286;60067;-81
2023/02/07 07:54:08;;;;;;;;;;;;;;;19.45;26.11;102740.71;105815;1285;60654;-82
2023/02/07 07:56:34;;;;;;;;;;;;;;;19.42;26.19;102746.54;105962;1286;62189;-82
2023/02/07 07:59:00;;;;;;;;;;;;;;;19.35;26.45;102751.23;106039;1286;59395;-81
2023/02/07 08:01:26;;;;;;;;;;;;;;;19.28;26.58;102751.45;106060;1285;60069;-80
2023/02/07 08:03:51;;;;;;;;;;;;;;;19.21;26.61;102747.92;106031;1285;61234;-81
2023/02/07 08:06:17;;;;;;;;;;;;;;;19.19;26.65;102750.66;106114;1285;59492;-82
2023/02/07 08:08:42;;;;;;;;;;;;;;;19.19;26.51;102752.64;106081;1286;61441;-82
2023/02/07 08:11:08;;;;;;;;;;;;;;;19.17;26.58;102752.00;105701;1286;59815;-82
2023/02/07 08:13:34;;;;;;;;;;;;;;;19.13;26.56;102749.45;105954;1288;60566;-81
2023/02/07 08:16:00;;;;;;;;;;;;;;;19.07;26.50;102751.42;106141;1284;59915;-81
2023/02/07 08:18:26;;;;;;;;;;;;;;;19.03;26.51;102750.46;106115;1285;61464;-80
2023/02/07 08:20:51;;;;;;;;;;;;;;;19.04;26.42;102751.70;106018;1284;61451;-80
2023/02/07 08:23:17;;;;;;;;;;;;;;;19.07;26.46;102752.14;106202;1285;60121;-81
2023/02/07 08:25:42;;;;;;;;;;;;;;;19.10;26.48;102750.61;106206;1285;60078;-80
2023/02/07 08:28:08;;;;;;;;;;;;;;;19.14;26.47;102749.59;106217;1285;59505;-80
2023/02/07 08:30:34;;;;;;;;;;;;;;;19.18;26.53;102748.23;106089;1285;61320;-81
2023/02/07 08:32:59;;;;;;;;;;;;;;;19.21;26.50;102746.49;106202;1285;61130;-80
2023/02/07 08:35:26;;;;;;;;;;;;;;;19.26;26.53;102749.56;106027;1286;62221;-80
2023/02/07 08:37:57;;;;;;;;;;;;;;;19.29;26.61;102744.27;106150;1286;59999;-80
2023/02/07 08:40:23;;;;;;;;;;;;;;;19.32;26.48;102746.67;106109;1285;61230;-81
2023/02/07 08:42:49;;;;;;;;;;;;;;;19.36;26.43;102744.96;106001;1285;61243;-80
2023/02/07 08:45:16;;;;;;;;;;;;;;;19.38;26.63;102740.42;105946;1286;59627;-80
2023/02/07 08:47:42;;;;;;;;;;;;;;;19.40;26.69;102739.81;106088;1285;60631;-80
2023/02/07 08:50:08;;;;;;;;;;;;;;;19.42;26.64;102742.77;106093;1285;59467;-80
2023/02/07 08:52:33;;;;;;;;;;;;;;;19.45;26.81;102743.23;105975;1288;61140;-80
2023/02/07 08:54:59;;;;;;;;;;;;;;;19.47;26.74;102737.80;106022;1285;61289;-80
2023/02/07 08:57:24;;;;;;;;;;;;;;;19.49;26.82;102740.40;106068;1286;61339;-80
2023/02/07 08:59:51;;;;;;;;;;;;;;;19.50;26.71;102740.36;106072;1285;61356;-81
2023/02/07 09:02:16;;;;;;;;;;;;;;;19.50;26.88;102738.77;106049;1284;59488;-81
2023/02/07 09:04:42;;;;;;;;;;;;;;;19.49;26.92;102732.54;106118;1286;60628;-81
2023/02/07 09:07:08;;;;;;;;;;;;;;;19.45;26.99;102731.79;106015;1286;60157;-81
2023/02/07 09:09:33;;;;;;;;;;;;;;;19.37;27.17;102729.05;106029;1284;59290;-81
2023/02/07 09:11:59;;;;;;;;;;;;;;;19.28;27.02;102726.45;105943;1286;61291;-81
2023/02/07 09:14:25;;;;;;;;;;;;;;;19.17;26.96;102723.08;106054;1284;60077;-80
2023/02/07 09:16:50;;;;;;;;;;;;;;;19.10;27.02;102721.16;106049;1286;60468;-81
2023/02/07 09:19:17;;;;;;;;;;;;;;;19.08;26.96;102721.23;106018;1285;59854;-81
2023/02/07 09:21:42;;;;;;;;;;;;;;;19.09;27.05;102720.13;106029;1286;59980;-80
2023/02/07 09:24:08;;;;;;;;;;;;;;;19.12;26.95;102711.27;105995;1285;60246;-81
2023/02/07 09:26:34;;;;;;;;;;;;;;;19.18;27.00;102701.98;106021;1287;59610;-80
2023/02/07 09:28:59;;;;;;;;;;;;;;;19.21;26.98;102700.63;106085;1284;61316;-80
2023/02/07 09:31:25;;;;;;;;;;;;;;;19.26;26.99;102701.55;106069;1285;61560;-80
2023/02/07 09:33:51;;;;;;;;;;;;;;;19.29;27.00;102699.66;105996;1285;61390;-80
2023/02/07 09:36:24;;;;;;;;;;;;;;;19.32;26.97;102697.23;106152;1284;59683;-80
2023/02/07 09:38:50;;;;;;;;;;;;;;;19.36;26.97;102695.33;105937;1286;73630;-80
2023/02/07 09:41:34;;;;;;;;;;;;;;;19.39;26.92;102694.50;106072;1285;59924;-80
2023/02/07 09:44:06;;;;;;;;;;;;;;;19.41;26.88;102683.35;106022;1285;60317;-80
2023/02/07 09:46:33;;;;;;;;;;;;;;;19.44;27.01;102682.91;106051;1284;59953;-80
2023/02/07 09:49:22;;;;;;;;;;;;;;;19.47;27.01;102681.20;106043;1286;73496;-80
2023/02/07 09:51:48;;;;;;;;;;;;;;;19.49;27.08;102672.91;105620;1290;75478;-80
2023/02/07 09:54:25;;;;;;;;;;;;;;;19.51;26.89;102666.41;105500;1291;61266;-80
2023/02/07 09:56:51;;;;;;;;;;;;;;;19.52;27.01;102664.74;105757;1290;61134;-81
2023/02/07 09:59:30;;;;;;;;;;;;;;;19.54;27.06;102662.20;105477;1291;61266;-82
2023/02/07 10:01:57;;;;;;;;;;;;;;;19.53;26.97;102660.98;105447;1291;74562;-81
2023/02/07 10:04:29;;;;;;;;;;;;;;;19.51;26.85;102656.94;105455;1290;61080;-82
2023/02/07 10:06:56;;;;;;;;;;;;;;;19.44;27.01;102655.58;105543;1291;60454;-81
2023/02/07 10:09:23;;;;;;;;;;;;;;;19.36;27.19;102650.87;105547;1291;72103;-81
2023/02/07 10:11:51;;;;;;;;;;;;;;;19.30;27.39;102655.16;105595;1292;75869;-81
2023/02/07 10:14:22;;;;;;;;;;;;;;;19.25;27.34;102649.80;105626;1291;60387;-81
2023/02/07 10:17:00;;;;;;;;;;;;;;;19.21;27.43;102647.79;105654;1290;61138;-81
2023/02/07 10:19:25;;;;;;;;;;;;;;;19.20;27.41;102642.13;105601;1291;73466;-81
2023/02/07 10:21:53;;;;;;;;;;;;;;;19.20;27.38;102638.73;105509;1292;61179;-80
2023/02/07 10:24:37;;;;;;;;;;;;;;;19.20;27.39;102637.13;105559;1291;61479;-81
2023/02/07 10:27:05;;;;;;;;;;;;;;;19.24;27.39;102637.00;105493;1292;60083;-80
2023/02/07 10:29:50;;;;;;;;;;;;;;;19.26;27.35;102635.65;105917;1284;73354;-81
2023/02/07 10:32:22;;;;;;;;;;;;;;;19.29;27.29;102632.02;106168;1288;74334;-82
2023/02/07 10:34:47;;;;;;;;;;;;;;;19.30;27.25;102631.77;106069;1285;60096;-81
2023/02/07 10:37:21;;;;;;;;;;;;;;;19.29;27.45;102630.92;106033;1286;61273;-82
2023/02/07 10:40:06;;;;;;;;;;;;;;;19.27;27.27;102632.79;105980;1285;72757;-81
2023/02/07 10:42:32;;;;;;;;;;;;;;;19.23;26.99;102630.58;106048;1287;74512;-82
2023/02/07 10:44:58;;;;;;;;;;;;;;;19.19;26.96;102628.92;106008;1285;61345;-81
2023/02/07 10:47:25;;;;;;;;;;;;;;;19.17;26.78;102632.95;106045;1285;61305;-84
2023/02/07 10:49:50;;;;;;;;;;;;;;;19.17;26.62;102632.77;106092;1285;61238;-82
2023/02/07 10:52:27;;;;;;;;;;;;;;;19.16;26.62;102631.55;105959;1284;59894;-81
2023/02/07 10:54:53;;;;;;;;;;;;;;;19.15;26.63;102625.15;106056;1286;60706;-81
2023/02/07 10:57:19;;;;;;;;;;;;;;;19.14;26.50;102629.84;106243;1286;60088;-81
2023/02/07 10:59:45;;;;;;;;;;;;;;;19.13;26.38;102626.48;106106;1286;60137;-81
2023/02/07 11:02:32;;;;;;;;;;;;;;;19.12;26.28;102624.91;105920;1286;61317;-81
2023/02/07 11:05:01;;;;;;;;;;;;;;;19.05;26.18;102618.52;105998;1284;62910;-81
2023/02/07 11:07:26;;;;;;;;;;;;;;;18.94;26.00;102616.23;105981;1286;60313;-81
2023/02/07 11:10:13;;;;;;;;;;;;;;;18.84;26.06;102617.95;105945;1285;61721;-80
2023/02/07 11:12:45;;;;;;;;;;;;;;;18.82;26.17;102614.09;106098;1284;75600;-81
2023/02/07 11:15:15;;;;;;;;;;;;;;;18.82;25.91;102609.61;106050;1286;59969;-80
2023/02/07 11:17:46;;;;;;;;;;;;;;;18.86;26.00;102608.95;106091;1285;60046;-81
2023/02/07 11:20:16;;;;;;;;;;;;;;;18.91;26.14;102609.55;106103;1286;73264;-80
2023/02/07 11:22:41;;;;;;;;;;;;;;;18.98;26.04;102607.88;106096;1287;74493;-80
2023/02/07 11:25:07;;;;;;;;;;;;;;;19.03;26.04;102604.48;105992;1285;60225;-81
2023/02/07 11:27:38;;;;;;;;;;;;;;;19.06;25.98;102600.30;106105;1286;61242;-80
2023/02/07 11:30:05;;;;;;;;;;;;;;;19.08;25.85;102596.64;106060;1286;73744;-80
2023/02/07 11:32:31;;;;;;;;;;;;;;;19.12;26.01;102597.05;106084;1286;74470;-81
2023/02/07 11:35:04;;;;;;;;;;;;;;;19.16;26.04;102599.62;106235;1285;61250;-82
2023/02/07 11:37:36;;;;;;;;;;;;;;;19.20;25.97;102591.59;106173;1286;60182;-81
2023/02/07 11:40:20;;;;;;;;;;;;;;;19.24;25.92;102591.09;105946;1286;74542;-81
2023/02/07 11:42:46;;;;;;;;;;;;;;;19.28;26.10;102587.04;106256;1286;74545;-82
2023/02/07 11:45:12;;;;;;;;;;;;;;;19.31;25.93;102584.61;106240;1285;60237;-82
2023/02/07 11:47:39;;;;;;;;;;;;;;;19.33;26.10;102578.85;106126;1286;60113;-82
2023/02/07 11:50:04;;;;;;;;;;;;;;;19.31;26.00;102573.19;106057;1286;61698;-82
2023/02/07 11:52:30;;;;;;;;;;;;;;;19.27;25.96;102574.05;106046;1286;61738;-82
2023/02/07 11:54:57;;;;;;;;;;;;;;;19.21;25.91;102574.25;105932;1285;60233;-82
2023/02/07 11:57:26;;;;;;;;;;;;;;;19.16;25.97;102570.32;106011;1285;60005;-81
2023/02/07 12:00:11;;;;;;;;;;;;;;;19.14;25.87;102564.52;106021;1286;61112;-81
2023/02/07 12:02:37;;;;;;;;;;;;;;;19.14;25.82;102563.27;105540;1291;74553;-81
2023/02/07 12:05:29;;;;;;;;;;;;;;;19.14;25.50;102567.36;105329;1292;59831;-82
2023/02/07 12:07:56;;;;;;;;;;;;;;;19.03;25.66;102566.30;105480;1292;61286;-82
2023/02/07 12:10:23;;;;;;;;;;;;;;;18.94;25.66;102563.58;105375;1291;73453;-82
2023/02/07 12:12:50;;;;;;;;;;;;;;;18.89;25.65;102558.58;105354;1292;75529;-82
2023/02/07 12:15:21;;;;;;;;;;;;;;;18.86;25.59;102558.66;105337;1292;60083;-82
2023/02/07 12:17:52;;;;;;;;;;;;;;;18.80;25.71;102554.21;105480;1291;59314;-82
2023/02/07 12:20:40;;;;;;;;;;;;;;;18.75;25.63;102558.65;105430;1292;71429;-82
2023/02/07 12:23:05;;;;;;;;;;;;;;;18.71;25.41;102554.87;105451;1292;75609;-81
2023/02/07 12:25:41;;;;;;;;;;;;;;;18.68;25.60;102552.46;105241;1292;61061;-81
2023/02/07 12:28:12;;;;;;;;;;;;;;;18.70;26.10;102549.91;105222;1296;61290;-82
2023/02/07 12:30:40;;;;;;;;;;;;;;;18.75;26.44;102554.02;105375;1292;73656;-82